Time;durP1;ratioP1;P1;durP2;ratioP2;P2;SDS_P1;SDS_P2;PMS_P1;PMS_P2;Temp;Humidity;BMP_temperature;BMP_pressure;BME280_temperature;BME280_humidity;BME280_pressure;Samples;Min_cycle;Max_cycle;Signal;HPM_P1;HPM_P2
2021/06/22 00:00:24;;;;;;;10.17;7.30;;;14.00;99.90;;;;;;4885096;29;20509;-75
2021/06/22 00:02:54;;;;;;;9.90;6.07;;;14.00;99.90;;;;;;4918904;29;20424;-75
2021/06/22 00:05:24;;;;;;;8.50;6.20;;;14.00;99.90;;;;;;4918230;29;20459;-75
2021/06/22 00:07:54;;;;;;;10.83;6.80;;;14.00;99.90;;;;;;4918804;29;20436;-75
2021/06/22 00:10:25;;;;;;;10.57;7.10;;;14.00;99.90;;;;;;4918536;29;20461;-75
2021/06/22 00:12:55;;;;;;;12.13;6.57;;;14.00;99.90;;;;;;4916839;29;20444;-75
2021/06/22 00:15:25;;;;;;;9.97;7.17;;;14.00;99.90;;;;;;4917168;29;20545;-75
2021/06/22 00:17:56;;;;;;;9.20;7.10;;;14.00;99.90;;;;;;4905672;29;20509;-75
2021/06/22 00:20:25;;;;;;;10.77;6.63;;;14.00;99.90;;;;;;4899205;29;20527;-75
2021/06/22 00:22:55;;;;;;;9.07;7.60;;;14.00;99.90;;;;;;4902013;29;20882;-75
2021/06/22 00:25:25;;;;;;;10.03;6.60;;;14.00;99.90;;;;;;4917938;29;20441;-75
2021/06/22 00:27:54;;;;;;;11.63;7.27;;;14.00;99.90;;;;;;4900940;29;20452;-75
2021/06/22 00:30:24;;;;;;;15.50;7.17;;;14.00;99.90;;;;;;4916471;29;20972;-75
2021/06/22 00:32:53;;;;;;;10.77;6.43;;;14.00;99.90;;;;;;4916423;29;20940;-75
2021/06/22 00:35:23;;;;;;;9.40;6.70;;;14.00;99.90;;;;;;4916503;29;20464;-75
2021/06/22 00:37:52;;;;;;;10.30;6.80;;;14.00;99.90;;;;;;4915877;29;20481;-75
2021/06/22 00:40:20;;;;;;;8.30;5.67;;;14.00;99.90;;;;;;4914666;29;21049;-75
2021/06/22 00:42:49;;;;;;;8.03;6.37;;;14.00;99.90;;;;;;4916391;29;20487;-75
2021/06/22 00:45:27;;;;;;;8.97;6.27;;;14.00;99.90;;;;;;4917197;29;20453;-75
2021/06/22 00:47:59;;;;;;;9.50;6.20;;;14.00;99.90;;;;;;4917872;29;20440;-75
2021/06/22 00:50:32;;;;;;;8.17;6.30;;;14.00;99.90;;;;;;4906640;29;20509;-75
2021/06/22 00:53:04;;;;;;;10.00;6.90;;;14.00;99.90;;;;;;4897434;29;20474;-75
2021/06/22 00:55:33;;;;;;;8.30;7.00;;;14.00;99.90;;;;;;4898198;29;20549;-75
2021/06/22 00:58:25;;;;;;;8.93;7.20;;;14.00;99.90;;;;;;4897228;29;20813;-75
2021/06/22 01:00:56;;;;;;;7.70;6.40;;;14.00;99.90;;;;;;4897441;29;20971;-75
2021/06/22 01:03:24;;;;;;;11.10;7.10;;;14.00;99.90;;;;;;4897062;29;20975;-75
2021/06/22 01:05:59;;;;;;;9.83;6.70;;;14.00;99.90;;;;;;4897723;29;20529;-75
2021/06/22 01:08:28;;;;;;;7.50;5.87;;;14.00;99.90;;;;;;4906591;29;20431;-75
2021/06/22 01:10:56;;;;;;;11.03;7.30;;;14.00;99.90;;;;;;4915909;29;20460;-75
2021/06/22 01:13:24;;;;;;;10.23;7.50;;;14.00;99.90;;;;;;4916189;29;20455;-75
2021/06/22 01:15:54;;;;;;;8.83;6.10;;;14.00;99.90;;;;;;4916239;29;20431;-75
2021/06/22 01:18:25;;;;;;;13.87;8.20;;;14.00;99.90;;;;;;4915892;29;20516;-75
2021/06/22 01:21:14;;;;;;;12.60;6.37;;;14.00;99.90;;;;;;4908790;29;20641;-75
2021/06/22 01:24:06;;;;;;;14.97;6.50;;;14.00;99.90;;;;;;4915644;29;20452;-75
2021/06/22 01:26:35;;;;;;;7.00;6.30;;;13.90;99.90;;;;;;4915821;29;20506;-74
2021/06/22 01:29:05;;;;;;;6.73;5.60;;;13.90;99.90;;;;;;4915921;29;20455;-75
2021/06/22 01:31:33;;;;;;;10.00;7.20;;;13.90;99.90;;;;;;4915776;29;20427;-75
2021/06/22 01:34:05;;;;;;;12.20;6.53;;;13.90;99.90;;;;;;4915376;29;20479;-75
2021/06/22 01:36:36;;;;;;;8.77;6.00;;;13.90;99.90;;;;;;4916557;29;20451;-75
2021/06/22 01:39:06;;;;;;;9.17;6.57;;;13.90;99.90;;;;;;4913175;29;20523;-75
2021/06/22 01:41:35;;;;;;;8.87;6.60;;;13.90;99.90;;;;;;4911892;29;20509;-75
2021/06/22 01:44:04;;;;;;;9.63;5.27;;;13.90;99.90;;;;;;4896860;29;20429;-75
2021/06/22 01:46:33;;;;;;;9.43;7.53;;;13.90;99.90;;;;;;4897976;29;20513;-75
2021/06/22 01:49:01;;;;;;;8.23;6.13;;;13.90;99.90;;;;;;4877756;29;20501;-74
2021/06/22 01:51:36;;;;;;;10.23;6.80;;;13.90;99.90;;;;;;4877235;29;20440;-75
2021/06/22 01:54:05;;;;;;;7.20;5.80;;;13.90;99.90;;;;;;4902817;29;20878;-75
2021/06/22 01:56:35;;;;;;;8.80;5.70;;;13.90;99.90;;;;;;4915633;29;20427;-75
2021/06/22 01:59:05;;;;;;;7.97;6.20;;;13.90;99.90;;;;;;4915581;29;20963;-75
2021/06/22 02:01:36;;;;;;;10.13;6.85;;;13.90;99.90;;;;;;4916718;29;20514;-76
2021/06/22 02:04:13;;;;;;;8.17;5.27;;;13.90;99.90;;;;;;4915549;29;20236;-77
2021/06/22 02:06:43;;;;;;;7.17;5.63;;;13.90;99.90;;;;;;4891739;29;21031;-76
2021/06/22 02:09:30;;;;;;;8.53;6.23;;;13.90;99.90;;;;;;4916909;29;20490;-77
2021/06/22 02:12:00;;;;;;;8.50;5.43;;;13.90;99.90;;;;;;4916317;29;20419;-77
2021/06/22 02:14:31;;;;;;;12.60;7.70;;;13.90;99.90;;;;;;4915336;29;21070;-77
2021/06/22 02:17:02;;;;;;;7.57;6.30;;;13.80;99.90;;;;;;4915351;29;20442;-77
2021/06/22 02:19:30;;;;;;;8.00;6.33;;;13.80;99.90;;;;;;4914300;29;20472;-77
2021/06/22 02:22:06;;;;;;;13.90;6.50;;;13.80;99.90;;;;;;4915782;29;21030;-77
2021/06/22 02:24:50;;;;;;;8.83;6.47;;;13.80;99.90;;;;;;4900015;29;20869;-77
2021/06/22 02:27:23;;;;;;;9.30;6.83;;;13.80;99.90;;;;;;4899926;29;20458;-77
2021/06/22 02:29:54;;;;;;;9.10;6.80;;;13.80;99.90;;;;;;4899845;29;21041;-77
2021/06/22 02:32:23;;;;;;;8.60;6.63;;;13.80;99.90;;;;;;4901078;29;20956;-76
2021/06/22 02:34:52;;;;;;;10.97;6.57;;;13.80;99.90;;;;;;4899415;29;20485;-77
2021/06/22 02:37:24;;;;;;;13.70;7.13;;;13.80;99.90;;;;;;4900068;29;20436;-77
2021/06/22 02:39:54;;;;;;;14.30;7.03;;;13.80;99.90;;;;;;4899467;29;20576;-77
2021/06/22 02:42:23;;;;;;;11.40;6.73;;;13.80;99.90;;;;;;4899689;29;21003;-77
2021/06/22 02:44:53;;;;;;;10.20;7.10;;;13.80;99.90;;;;;;4885786;29;20965;-77
2021/06/22 02:47:21;;;;;;;8.40;5.53;;;13.80;99.90;;;;;;4881160;29;20433;-76
2021/06/22 02:49:50;;;;;;;12.87;6.87;;;13.80;99.90;;;;;;4880795;29;20565;-76
2021/06/22 02:52:19;;;;;;;10.50;6.47;;;13.70;99.90;;;;;;4880845;29;20465;-77
2021/06/22 02:54:49;;;;;;;9.57;6.23;;;13.70;99.90;;;;;;4880797;29;20855;-77
2021/06/22 02:57:17;;;;;;;9.07;5.93;;;13.70;99.90;;;;;;4899560;29;20457;-77
2021/06/22 02:59:45;;;;;;;8.20;6.20;;;13.70;99.90;;;;;;4899486;29;20497;-77
2021/06/22 03:02:14;;;;;;;16.00;7.53;;;13.70;99.90;;;;;;4899519;29;20461;-76
2021/06/22 03:04:42;;;;;;;9.52;6.55;;;13.70;99.90;;;;;;4909512;29;20806;-77
2021/06/22 03:07:11;;;;;;;9.80;6.40;;;13.70;99.90;;;;;;4918481;29;20563;-75
2021/06/22 03:09:39;;;;;;;11.97;6.70;;;13.70;99.90;;;;;;4918948;29;20907;-75
2021/06/22 03:12:10;;;;;;;8.47;6.57;;;13.70;99.90;;;;;;4918394;29;20424;-75
2021/06/22 03:14:58;;;;;;;9.90;6.82;;;13.70;99.90;;;;;;4918732;29;20563;-75
2021/06/22 03:17:32;;;;;;;13.70;6.53;;;13.70;99.90;;;;;;4918004;29;20200;-75
2021/06/22 03:20:04;;;;;;;11.10;5.80;;;13.70;99.90;;;;;;4911096;29;20545;-75
2021/06/22 04:38:48;;;;;;;10.63;5.90;;;13.90;99.90;;;;;;4740619;27;20502;-76
2021/06/22 04:41:16;;;;;;;7.17;5.17;;;13.90;99.90;;;;;;4917570;29;20452;-76
2021/06/22 04:43:44;;;;;;;10.37;4.70;;;13.90;99.90;;;;;;4916583;29;20464;-76
2021/06/22 04:46:12;;;;;;;9.97;5.60;;;13.90;99.90;;;;;;4900546;29;20500;-76
2021/06/22 04:48:40;;;;;;;7.83;5.20;;;14.00;99.90;;;;;;4900562;29;20452;-76
2021/06/22 04:51:09;;;;;;;16.83;6.77;;;14.00;99.90;;;;;;4917762;29;20479;-76
2021/06/22 04:53:37;;;;;;;9.47;5.77;;;14.00;99.90;;;;;;4917499;29;20782;-76
2021/06/22 04:56:07;;;;;;;8.80;4.97;;;14.00;99.90;;;;;;4900424;29;20914;-76
2021/06/22 04:58:35;;;;;;;9.03;4.23;;;14.00;99.90;;;;;;4897137;29;20454;-76
2021/06/22 05:01:05;;;;;;;9.90;5.60;;;14.00;99.90;;;;;;4906694;29;20892;-76
2021/06/22 05:03:34;;;;;;;8.10;4.33;;;14.10;99.90;;;;;;4916911;29;20627;-78
2021/06/22 05:06:02;;;;;;;8.00;6.10;;;14.10;99.90;;;;;;4898436;29;20449;-77
2021/06/22 05:08:30;;;;;;;5.90;4.43;;;14.10;99.90;;;;;;4898478;29;20453;-78
2021/06/22 05:10:59;;;;;;;8.23;4.70;;;14.10;99.90;;;;;;4916054;29;20943;-78
2021/06/22 05:13:29;;;;;;;6.13;4.57;;;14.20;99.90;;;;;;4900414;29;20424;-77
2021/06/22 05:15:57;;;;;;;12.60;5.03;;;14.20;99.90;;;;;;4900884;29;20504;-77
2021/06/22 05:18:25;;;;;;;9.67;5.17;;;14.20;99.90;;;;;;4900385;29;20431;-79
2021/06/22 05:20:54;;;;;;;9.57;5.10;;;14.30;99.90;;;;;;4917756;29;20540;-78
2021/06/22 05:23:22;;;;;;;7.20;4.30;;;14.30;99.90;;;;;;4918053;29;20416;-78
2021/06/22 05:25:50;;;;;;;8.57;4.33;;;14.30;99.90;;;;;;4900592;29;20455;-78
2021/06/22 05:28:18;;;;;;;8.73;4.37;;;14.30;99.90;;;;;;4917645;29;20496;-78
2021/06/22 05:30:48;;;;;;;7.53;5.17;;;14.30;99.90;;;;;;4900758;29;21057;-78
2021/06/22 05:33:16;;;;;;;6.47;4.47;;;14.40;99.90;;;;;;4900651;29;20460;-77
2021/06/22 05:35:44;;;;;;;7.50;4.77;;;14.40;99.90;;;;;;4900790;29;20480;-77
2021/06/22 05:38:12;;;;;;;10.40;4.73;;;14.40;99.90;;;;;;4901217;29;20495;-77
2021/06/22 05:40:41;;;;;;;8.85;4.30;;;14.40;99.90;;;;;;4899912;29;20465;-77
2021/06/22 05:43:09;;;;;;;9.70;5.00;;;14.50;99.90;;;;;;4916940;29;20286;-77
2021/06/22 05:45:37;;;;;;;9.57;3.97;;;14.50;99.90;;;;;;4899918;29;20477;-77
2021/06/22 05:48:08;;;;;;;5.83;4.10;;;14.50;99.90;;;;;;4916840;29;20856;-77
2021/06/22 05:50:36;;;;;;;7.40;4.50;;;14.50;99.90;;;;;;4899539;29;20622;-77
2021/06/22 05:53:04;;;;;;;5.63;4.13;;;14.60;99.90;;;;;;4900012;29;20633;-77
2021/06/22 05:55:32;;;;;;;7.83;5.00;;;14.70;99.90;;;;;;4920807;29;20444;-77
2021/06/22 05:58:01;;;;;;;10.57;4.50;;;14.80;99.90;;;;;;4904855;29;20523;-78
2021/06/22 06:00:32;;;;;;;7.03;4.30;;;14.90;99.90;;;;;;4904980;29;20484;-78
2021/06/22 06:03:01;;;;;;;5.90;4.67;;;15.10;99.90;;;;;;4904973;29;20487;-77
2021/06/22 06:05:32;;;;;;;9.80;4.30;;;15.30;99.90;;;;;;4905102;29;20424;-78
2021/06/22 06:08:00;;;;;;;7.13;4.73;;;15.50;99.90;;;;;;4922836;29;20467;-78
2021/06/22 06:10:29;;;;;;;7.20;4.70;;;15.80;99.90;;;;;;4904939;29;20473;-78
2021/06/22 06:12:57;;;;;;;8.13;4.00;;;16.10;99.90;;;;;;4905253;29;20460;-78
2021/06/22 06:15:26;;;;;;;6.10;3.97;;;16.20;99.90;;;;;;4905024;29;20472;-78
2021/06/22 06:17:55;;;;;;;7.40;4.60;;;16.30;99.90;;;;;;4905268;29;20500;-78
2021/06/22 06:20:26;;;;;;;6.20;4.10;;;16.50;99.90;;;;;;4921810;29;20444;-78
2021/06/22 06:22:57;;;;;;;7.53;4.90;;;16.70;99.90;;;;;;4905622;29;20510;-78
2021/06/22 06:25:25;;;;;;;6.10;3.73;;;16.90;99.90;;;;;;4921964;29;20519;-78
2021/06/22 06:27:56;;;;;;;8.77;5.20;;;17.10;99.90;;;;;;4904823;29;20949;-78
2021/06/22 06:30:28;;;;;;;6.27;4.40;;;17.40;99.90;;;;;;4904305;29;20854;-78
2021/06/22 06:32:57;;;;;;;6.10;4.07;;;17.50;99.90;;;;;;4904289;29;20420;-78
2021/06/22 06:35:26;;;;;;;8.60;4.30;;;17.70;99.90;;;;;;4921851;29;20506;-78
2021/06/22 06:37:56;;;;;;;8.60;4.67;;;17.80;99.90;;;;;;4920877;29;20541;-78
2021/06/22 06:40:24;;;;;;;9.77;4.70;;;17.90;99.90;;;;;;4920849;29;20468;-78
2021/06/22 06:42:53;;;;;;;9.90;4.57;;;18.00;99.90;;;;;;4903790;29;20449;-78
2021/06/22 06:45:21;;;;;;;7.03;4.30;;;18.00;99.90;;;;;;4903854;29;21038;-77
2021/06/22 06:47:52;;;;;;;13.73;4.60;;;18.20;99.90;;;;;;4904635;29;20457;-78
2021/06/22 06:50:21;;;;;;;6.07;4.27;;;18.30;99.90;;;;;;4906237;29;20507;-78
2021/06/22 06:52:49;;;;;;;8.87;4.40;;;18.40;99.90;;;;;;4908134;29;20466;-78
2021/06/22 06:55:26;;;;;;;9.50;4.30;;;18.60;99.90;;;;;;4906839;29;20459;-78
2021/06/22 06:57:57;;;;;;;10.97;4.10;;;18.70;99.90;;;;;;4904336;29;20558;-78
2021/06/22 07:00:27;;;;;;;6.37;4.50;;;18.90;99.90;;;;;;4903432;29;20581;-78
2021/06/22 07:02:55;;;;;;;7.47;4.10;;;18.80;99.90;;;;;;4920318;29;20953;-77
2021/06/22 07:05:23;;;;;;;7.20;4.43;;;18.60;99.90;;;;;;4919882;29;20526;-77
2021/06/22 07:07:52;;;;;;;8.00;4.82;;;18.40;99.90;;;;;;4902324;29;20546;-77
2021/06/22 07:10:22;;;;;;;6.03;3.77;;;18.40;99.90;;;;;;4903355;29;20267;-77
2021/06/22 07:12:50;;;;;;;8.80;4.33;;;18.30;99.90;;;;;;4903186;29;20492;-77
2021/06/22 07:15:18;;;;;;;5.50;3.93;;;18.40;99.90;;;;;;4921072;29;20487;-77
2021/06/22 07:17:47;;;;;;;8.07;4.00;;;18.40;99.90;;;;;;4903997;29;20466;-77
2021/06/22 07:20:16;;;;;;;6.40;3.43;;;18.40;99.90;;;;;;4903470;29;20997;-78
2021/06/22 07:22:45;;;;;;;6.17;3.53;;;18.30;99.90;;;;;;4903395;29;20985;-77
2021/06/22 07:25:15;;;;;;;8.93;3.83;;;18.20;99.90;;;;;;4919531;29;20459;-77
2021/06/22 07:27:45;;;;;;;9.50;4.00;;;18.30;99.90;;;;;;4902946;29;20439;-77
2021/06/22 07:30:17;;;;;;;6.97;3.73;;;18.40;99.90;;;;;;4902633;29;20518;-77
2021/06/22 07:32:45;;;;;;;7.80;4.17;;;18.60;99.90;;;;;;4919554;29;20459;-77
2021/06/22 07:35:14;;;;;;;6.10;3.93;;;18.80;99.90;;;;;;4904002;29;20479;-77
2021/06/22 07:37:42;;;;;;;9.30;3.50;;;19.00;99.90;;;;;;4920250;29;20524;-78
2021/06/22 07:40:11;;;;;;;5.40;3.63;;;19.10;99.90;;;;;;4903527;29;20475;-77
2021/06/22 07:42:40;;;;;;;7.07;3.63;;;19.10;99.90;;;;;;4920681;29;20526;-77
2021/06/22 07:45:12;;;;;;;8.80;4.37;;;19.00;99.90;;;;;;4920070;29;20434;-77
2021/06/22 07:47:40;;;;;;;4.90;3.30;;;18.90;99.90;;;;;;4920902;29;20427;-77
2021/06/22 07:50:10;;;;;;;7.10;3.90;;;18.70;99.90;;;;;;4902316;29;20527;-77
2021/06/22 07:52:38;;;;;;;9.17;5.87;;;18.60;99.90;;;;;;4920185;29;20493;-78
2021/06/22 07:55:13;;;;;;;4.80;3.70;;;18.50;99.90;;;;;;4903523;29;20511;-78
2021/06/22 07:57:43;;;;;;;5.93;3.93;;;18.50;99.90;;;;;;4920769;29;20596;-78
2021/06/22 08:00:37;;;;;;;7.47;4.30;;;18.50;99.90;;;;;;4920897;29;20863;-78
2021/06/22 08:03:06;;;;;;;8.70;4.20;;;18.50;99.90;;;;;;4903335;29;20459;-78
2021/06/22 08:05:34;;;;;;;7.00;4.50;;;18.50;99.90;;;;;;4902872;29;20543;-78
2021/06/22 08:08:03;;;;;;;8.77;5.20;;;18.50;99.90;;;;;;4903217;29;20458;-78
2021/06/22 08:10:31;;;;;;;7.03;4.10;;;18.60;99.90;;;;;;4919241;29;20489;-77
2021/06/22 08:12:59;;;;;;;7.70;4.83;;;18.70;99.90;;;;;;4920064;29;20455;-77
2021/06/22 08:15:29;;;;;;;7.03;4.77;;;18.80;99.90;;;;;;4902506;29;20466;-78
2021/06/22 08:17:58;;;;;;;7.47;4.70;;;18.90;99.90;;;;;;4903073;29;20555;-78
2021/06/22 08:20:27;;;;;;;4.80;4.30;;;18.90;99.90;;;;;;4902879;29;20471;-78
2021/06/22 08:22:55;;;;;;;7.70;4.77;;;18.90;99.90;;;;;;4920121;29;20785;-77
2021/06/22 08:25:25;;;;;;;8.57;6.30;;;18.90;99.90;;;;;;4902700;29;20870;-77
2021/06/22 08:27:54;;;;;;;5.80;5.10;;;18.80;99.90;;;;;;4902942;29;20914;-78
2021/06/22 08:30:25;;;;;;;5.77;4.77;;;18.80;99.90;;;;;;4903808;29;20477;-77
2021/06/22 08:32:55;;;;;;;5.03;4.30;;;18.80;99.90;;;;;;4903956;29;20887;-77
2021/06/22 08:35:24;;;;;;;6.43;4.60;;;18.80;99.90;;;;;;4901864;29;20493;-78
2021/06/22 08:37:54;;;;;;;7.03;6.27;;;18.80;99.90;;;;;;4901795;29;20508;-77
2021/06/22 08:40:22;;;;;;;6.07;5.47;;;18.80;99.90;;;;;;4902053;29;20562;-77
2021/06/22 08:42:54;;;;;;;8.60;5.40;;;18.80;99.90;;;;;;4902199;29;20447;-78
2021/06/22 08:45:23;;;;;;;4.93;4.27;;;18.70;99.90;;;;;;4902026;29;20999;-78
2021/06/22 08:47:53;;;;;;;5.43;4.37;;;18.80;99.90;;;;;;4902168;29;20464;-78
2021/06/22 08:50:24;;;;;;;4.87;4.10;;;18.80;99.90;;;;;;4901981;29;20483;-78
2021/06/22 08:52:52;;;;;;;5.00;3.67;;;18.80;99.90;;;;;;4919189;29;20453;-77
2021/06/22 08:55:32;;;;;;;6.57;3.67;;;18.80;99.90;;;;;;4901618;29;20448;-78
2021/06/22 08:58:04;;;;;;;6.90;3.30;;;18.90;99.90;;;;;;4919370;29;20473;-78
2021/06/22 09:00:35;;;;;;;5.30;4.13;;;19.00;99.90;;;;;;4901788;29;20479;-78
2021/06/22 09:03:06;;;;;;;4.67;3.20;;;19.10;99.90;;;;;;4918566;29;20451;-78
2021/06/22 09:05:36;;;;;;;6.93;4.10;;;19.10;99.90;;;;;;4901985;29;20644;-77
2021/06/22 09:08:04;;;;;;;5.97;3.90;;;19.20;99.90;;;;;;4918849;29;20482;-78
2021/06/22 09:10:35;;;;;;;5.80;4.20;;;19.20;99.90;;;;;;4918821;29;20463;-78
2021/06/22 09:13:13;;;;;;;5.43;3.60;;;19.20;99.90;;;;;;4903132;29;20501;-78
2021/06/22 09:15:42;;;;;;;4.80;3.27;;;19.20;99.90;;;;;;4903693;29;20189;-79
2021/06/22 09:18:28;;;;;;;6.10;3.93;;;19.30;99.90;;;;;;4921488;29;20514;-78
2021/06/22 09:20:59;;;;;;;4.10;3.53;;;19.40;99.90;;;;;;4900676;29;20539;-77
2021/06/22 10:01:52;;;;;;;7.27;4.33;;;20.20;99.90;;;;;;4903897;29;20466;-75
2021/06/22 10:04:23;;;;;;;7.33;4.40;;;20.20;99.80;;;;;;4934505;29;20439;-75
2021/06/22 10:06:54;;;;;;;11.53;5.10;;;20.10;99.60;;;;;;4934657;29;20449;-75
2021/06/22 10:09:25;;;;;;;4.40;4.00;;;20.00;99.50;;;;;;4936335;29;20468;-75
2021/06/22 10:12:02;;;;;;;5.37;4.20;;;19.90;99.50;;;;;;4935709;29;20422;-75
2021/06/22 10:14:32;;;;;;;5.50;3.60;;;19.80;99.60;;;;;;4918384;29;20518;-75
2021/06/22 10:17:04;;;;;;;4.97;3.30;;;19.80;99.50;;;;;;4935383;29;20449;-75
2021/06/22 10:19:33;;;;;;;6.87;4.30;;;19.80;98.90;;;;;;4934219;29;20227;-75
2021/06/22 10:22:05;;;;;;;6.57;4.27;;;19.70;98.70;;;;;;4918473;29;20449;-75
2021/06/22 10:24:34;;;;;;;7.80;3.70;;;19.60;98.50;;;;;;4918750;29;20813;-75
2021/06/22 10:27:03;;;;;;;6.37;4.10;;;19.50;98.40;;;;;;4934189;29;20545;-75
2021/06/22 10:29:32;;;;;;;8.32;4.10;;;19.50;98.80;;;;;;4934563;29;20441;-75
2021/06/22 10:32:02;;;;;;;5.57;4.40;;;19.70;98.30;;;;;;4918340;29;20262;-75
2021/06/22 10:34:32;;;;;;;6.00;4.03;;;19.80;98.40;;;;;;4918292;29;20458;-75
2021/06/22 10:37:04;;;;;;;4.63;3.97;;;20.00;98.50;;;;;;4918081;29;20988;-75
2021/06/22 10:39:36;;;;;;;8.33;3.70;;;20.10;98.30;;;;;;4918116;29;20490;-75
2021/06/22 10:42:11;;;;;;;4.83;3.53;;;20.10;98.10;;;;;;4938651;29;20433;-75
2021/06/22 10:45:00;;;;;;;6.20;4.03;;;20.00;98.00;;;;;;4937289;29;21030;-75
2021/06/22 10:47:32;;;;;;;3.57;3.27;;;20.00;98.00;;;;;;4921700;29;20475;-75
2021/06/22 10:50:19;;;;;;;6.83;3.40;;;20.10;98.00;;;;;;4937359;29;20557;-75
2021/06/22 10:53:02;;;;;;;7.30;3.70;;;20.00;97.70;;;;;;4937466;29;20457;-75
2021/06/22 10:56:17;;;;;;;5.63;4.30;;;20.00;97.70;;;;;;4921473;29;20453;-75
2021/06/22 10:59:24;;;;;;;5.43;3.70;;;20.00;97.70;;;;;;4922073;29;20488;-75
2021/06/22 11:02:05;;;;;;;8.67;3.60;;;20.20;97.50;;;;;;4921411;29;20931;-75
2021/06/22 11:04:35;;;;;;;4.80;2.77;;;20.30;97.20;;;;;;4921260;29;20446;-75
2021/06/22 11:07:19;;;;;;;4.70;3.13;;;20.30;97.20;;;;;;4938680;29;20431;-75
2021/06/22 11:10:15;;;;;;;4.37;3.30;;;20.30;97.00;;;;;;4938497;29;20478;-75
2021/06/22 11:12:53;;;;;;;8.17;3.23;;;20.20;96.80;;;;;;4921250;29;20545;-76
2021/06/22 11:15:22;;;;;;;5.57;3.90;;;20.20;96.80;;;;;;4938585;29;20461;-76
2021/06/22 11:18:01;;;;;;;5.00;3.50;;;20.20;96.90;;;;;;4937291;29;20860;-76
2021/06/22 11:20:32;;;;;;;6.20;3.53;;;20.30;96.20;;;;;;4938235;29;20311;-76
2021/06/22 11:23:06;;;;;;;4.70;3.17;;;20.20;96.40;;;;;;4938145;29;21001;-76
2021/06/22 11:26:02;;;;;;;6.57;4.60;;;20.10;96.40;;;;;;4936877;29;20447;-75
2021/06/22 11:28:54;;;;;;;8.25;4.15;;;20.10;96.40;;;;;;4915240;29;21011;-75
2021/06/22 11:31:37;;;;;;;7.77;3.67;;;20.10;95.90;;;;;;4921308;29;20305;-76
2021/06/22 11:34:07;;;;;;;7.70;3.47;;;20.20;96.10;;;;;;4920945;29;21022;-76
2021/06/22 11:36:39;;;;;;;16.47;5.80;;;20.30;96.20;;;;;;4937986;29;20430;-75
2021/06/22 11:39:19;;;;;;;6.93;3.63;;;20.40;96.40;;;;;;4920646;29;20595;-75
2021/06/22 11:42:19;;;;;;;5.27;3.70;;;20.40;96.30;;;;;;4937876;29;20429;-76
2021/06/22 11:45:17;;;;;;;6.63;3.70;;;20.40;96.70;;;;;;4937585;29;20455;-75
2021/06/22 11:47:57;;;;;;;4.97;3.50;;;20.40;96.10;;;;;;4936427;29;20443;-76
2021/06/22 11:50:37;;;;;;;5.30;3.60;;;20.30;96.10;;;;;;4920562;29;20513;-76
2021/06/22 11:53:15;;;;;;;5.53;4.13;;;20.30;96.30;;;;;;4937647;29;20426;-76
2021/06/22 11:55:51;;;;;;;6.20;3.87;;;20.30;96.40;;;;;;4936343;29;20874;-76
2021/06/22 11:58:25;;;;;;;10.60;3.83;;;20.30;96.30;;;;;;4937431;29;20565;-75
2021/06/22 12:00:55;;;;;;;8.13;3.83;;;20.30;96.00;;;;;;4937392;29;20443;-76
2021/06/22 12:03:28;;;;;;;4.90;3.60;;;20.20;95.80;;;;;;4920342;29;20451;-76
2021/06/22 12:06:10;;;;;;;6.70;4.13;;;20.10;95.80;;;;;;4937512;29;20474;-75
2021/06/22 12:08:42;;;;;;;6.07;4.20;;;20.00;95.90;;;;;;4920107;29;20551;-76
2021/06/22 12:11:13;;;;;;;6.90;3.77;;;20.10;96.00;;;;;;4920116;29;20480;-76
2021/06/22 12:13:45;;;;;;;10.03;3.70;;;20.10;96.10;;;;;;4937277;29;20447;-76
2021/06/22 12:16:16;;;;;;;6.75;3.40;;;20.20;96.00;;;;;;4936378;29;20528;-76
2021/06/22 12:18:44;;;;;;;6.17;4.07;;;20.20;94.90;;;;;;4920526;29;20282;-76
2021/06/22 12:21:12;;;;;;;5.03;3.70;;;20.30;95.00;;;;;;4935749;29;20459;-76
2021/06/22 12:23:42;;;;;;;6.13;3.77;;;20.30;95.00;;;;;;4937155;29;20478;-76
2021/06/22 12:26:13;;;;;;;8.20;4.27;;;20.30;95.30;;;;;;4919616;29;20467;-76
2021/06/22 12:28:43;;;;;;;7.07;3.53;;;20.30;95.20;;;;;;4936892;29;20425;-76
2021/06/22 12:31:13;;;;;;;9.63;4.40;;;20.40;95.00;;;;;;4936861;29;20852;-76
2021/06/22 12:33:44;;;;;;;5.77;3.30;;;20.50;94.90;;;;;;4936853;29;20463;-76
2021/06/22 12:36:17;;;;;;;6.97;4.23;;;20.60;94.80;;;;;;4936873;29;20422;-76
2021/06/22 12:38:54;;;;;;;5.13;3.30;;;20.60;94.70;;;;;;4919526;29;21029;-76
2021/06/22 12:41:29;;;;;;;4.40;3.90;;;20.60;94.60;;;;;;4935485;29;21044;-76
2021/06/22 12:43:58;;;;;;;3.90;3.37;;;20.60;94.50;;;;;;4919549;29;20445;-76
2021/06/22 12:46:28;;;;;;;5.83;3.33;;;20.60;94.60;;;;;;4935247;29;20505;-76
2021/06/22 12:48:59;;;;;;;6.23;3.80;;;20.60;94.40;;;;;;4920497;29;20562;-77
2021/06/22 12:58:24;;;;;;;4.23;3.30;;;20.70;94.30;;;;;;4935275;29;20570;-76
2021/06/22 13:00:53;;;;;;;5.03;3.87;;;20.70;94.30;;;;;;4919441;29;20961;-77
2021/06/22 13:03:22;;;;;;;6.73;3.80;;;20.70;94.60;;;;;;4935703;29;20448;-77
2021/06/22 13:05:52;;;;;;;7.63;5.70;;;20.80;94.20;;;;;;4919275;29;20528;-77
2021/06/22 13:08:29;;;;;;;8.30;3.73;;;20.90;94.00;;;;;;4936469;29;20512;-77
2021/06/22 13:10:57;;;;;;;6.90;4.17;;;21.00;94.00;;;;;;4935236;29;20481;-77
2021/06/22 13:13:29;;;;;;;6.07;3.83;;;21.00;93.80;;;;;;4919236;29;20469;-77
2021/06/22 13:16:10;;;;;;;6.03;3.83;;;21.10;93.70;;;;;;4919325;29;20442;-77
2021/06/22 13:18:58;;;;;;;5.50;3.83;;;21.10;93.40;;;;;;4919752;29;20569;-77
2021/06/22 13:21:37;;;;;;;5.83;3.53;;;20.90;93.10;;;;;;4919007;29;20496;-77
2021/06/22 13:24:38;;;;;;;7.30;4.80;;;20.80;93.10;;;;;;4919011;29;20446;-77
2021/06/22 13:27:09;;;;;;;6.55;4.10;;;20.80;93.30;;;;;;4918774;29;20557;-76
2021/06/22 13:29:55;;;;;;;7.60;4.70;;;20.70;93.10;;;;;;4918967;29;20320;-77
2021/06/22 13:32:33;;;;;;;4.97;3.27;;;20.70;93.00;;;;;;4935718;29;20549;-76
2021/06/22 13:35:04;;;;;;;5.20;3.57;;;20.70;93.00;;;;;;4919216;29;20473;-77
2021/06/22 13:37:32;;;;;;;4.90;4.30;;;20.60;92.80;;;;;;4918779;29;20540;-77
2021/06/22 13:40:02;;;;;;;4.17;2.97;;;20.60;92.90;;;;;;4918698;29;20534;-77
2021/06/22 13:42:31;;;;;;;6.80;4.07;;;20.60;92.80;;;;;;4936128;29;20524;-76
2021/06/22 13:45:12;;;;;;;5.73;4.03;;;20.60;93.00;;;;;;4935859;29;20534;-77
2021/06/22 13:47:42;;;;;;;8.10;3.27;;;20.70;92.60;;;;;;4918811;29;20484;-77
2021/06/22 13:50:23;;;;;;;5.03;3.63;;;20.70;92.80;;;;;;4918696;29;20502;-76
2021/06/22 13:52:53;;;;;;;4.90;3.30;;;20.80;92.60;;;;;;4935985;29;20455;-77
2021/06/22 13:55:32;;;;;;;5.30;3.30;;;20.80;92.60;;;;;;4934360;29;20808;-77
2021/06/22 13:58:01;;;;;;;5.50;3.43;;;20.80;92.60;;;;;;4934438;29;20467;-76
2021/06/22 14:00:31;;;;;;;4.80;4.23;;;20.80;92.70;;;;;;4935619;29;20480;-76
2021/06/22 14:02:59;;;;;;;4.63;3.70;;;20.90;92.70;;;;;;4918922;29;20488;-77
2021/06/22 14:05:28;;;;;;;6.37;3.93;;;20.90;92.60;;;;;;4934647;29;20471;-76
2021/06/22 14:07:57;;;;;;;6.53;3.60;;;20.90;92.60;;;;;;4918662;29;20502;-77
2021/06/22 14:10:25;;;;;;;5.30;3.40;;;20.90;92.60;;;;;;4935497;29;20457;-77
2021/06/22 14:12:53;;;;;;;6.07;3.33;;;20.90;92.50;;;;;;4936166;29;20454;-77
2021/06/22 14:15:22;;;;;;;5.72;3.35;;;20.90;92.50;;;;;;4938616;29;20455;-78
2021/06/22 14:17:53;;;;;;;3.40;2.93;;;20.80;92.20;;;;;;4939514;29;20221;-76
2021/06/22 14:20:22;;;;;;;4.37;3.27;;;20.70;92.20;;;;;;4922057;29;20485;-76
2021/06/22 14:22:51;;;;;;;5.03;3.40;;;20.70;92.20;;;;;;4922113;29;20544;-76
2021/06/22 14:25:19;;;;;;;5.20;3.40;;;20.60;92.00;;;;;;4922929;29;20453;-76
2021/06/22 14:27:48;;;;;;;7.17;3.67;;;20.60;92.10;;;;;;4922135;29;21024;-76
2021/06/22 14:30:17;;;;;;;9.77;3.80;;;20.60;91.60;;;;;;4921904;29;20560;-76
2021/06/22 14:32:47;;;;;;;9.73;4.53;;;20.60;91.70;;;;;;4939255;29;20449;-76
2021/06/22 14:35:17;;;;;;;11.23;4.30;;;20.60;91.70;;;;;;4939211;29;20455;-76
2021/06/22 14:37:47;;;;;;;5.27;4.63;;;20.60;91.70;;;;;;4921898;29;20443;-75
2021/06/22 14:40:19;;;;;;;4.60;2.50;;;20.60;91.70;;;;;;4938743;29;20566;-76
2021/06/22 14:42:48;;;;;;;3.57;2.70;;;20.60;91.60;;;;;;4939214;29;20972;-76
2021/06/22 14:45:17;;;;;;;6.03;3.13;;;20.60;91.60;;;;;;4921741;29;20501;-76
2021/06/22 14:47:46;;;;;;;4.60;2.70;;;20.50;91.50;;;;;;4921508;29;20498;-76
2021/06/22 14:50:16;;;;;;;5.33;2.90;;;20.50;91.50;;;;;;4938950;29;20470;-76
2021/06/22 14:52:46;;;;;;;5.90;2.60;;;20.50;91.50;;;;;;4921777;29;20984;-77
2021/06/22 14:55:31;;;;;;;5.03;2.67;;;20.50;91.60;;;;;;4938696;29;20947;-77
2021/06/22 14:58:02;;;;;;;3.37;3.07;;;20.60;91.40;;;;;;4918847;29;20466;-78
2021/06/22 15:00:51;;;;;;;6.07;3.40;;;20.60;91.50;;;;;;4921305;29;20505;-77
2021/06/22 15:03:19;;;;;;;4.73;2.80;;;20.70;91.50;;;;;;4921348;29;20832;-77
2021/06/22 15:05:49;;;;;;;4.07;2.87;;;20.70;91.20;;;;;;4921644;29;20494;-77
2021/06/22 15:08:17;;;;;;;4.93;2.80;;;20.70;91.00;;;;;;4921391;29;20544;-76
2021/06/22 15:10:46;;;;;;;5.20;2.63;;;20.60;91.00;;;;;;4938476;29;20480;-76